createdAt,value
2023-01-11T00:01:39.574Z,6.08
2023-01-11T00:04:43.699Z,6.17
2023-01-11T00:07:47.753Z,6.13
2023-01-11T00:10:51.451Z,6.04
2023-01-11T00:13:55.504Z,6.18
2023-01-11T00:17:00.113Z,6.11
2023-01-11T00:20:04.570Z,6.13
2023-01-11T00:23:08.718Z,6.20
2023-01-11T00:26:13.242Z,6.31
2023-01-11T00:29:17.098Z,6.36
2023-01-11T00:32:21.149Z,6.37
2023-01-11T00:35:26.557Z,6.37
2023-01-11T00:38:51.588Z,6.32
2023-01-11T00:42:14.549Z,6.31
2023-01-11T00:45:37.135Z,6.24
2023-01-11T00:48:41.437Z,6.13
2023-01-11T00:51:45.926Z,6.24
2023-01-11T00:54:49.837Z,6.23
2023-01-11T00:57:54.324Z,6.26
2023-01-11T01:00:58.679Z,6.18
2023-01-11T01:04:03.350Z,6.21
2023-01-11T01:07:07.619Z,6.33
2023-01-11T01:10:13.862Z,6.34
2023-01-11T01:13:36.552Z,6.40
2023-01-11T01:16:42.253Z,6.39
2023-01-11T01:19:46.254Z,6.39
2023-01-11T01:22:50.476Z,6.45
2023-01-11T01:25:54.302Z,6.43
2023-01-11T01:28:58.145Z,6.38
2023-01-11T01:32:02.028Z,6.43
2023-01-11T01:35:06.568Z,6.55
2023-01-11T01:38:10.442Z,6.55
2023-01-11T01:41:14.929Z,6.56
2023-01-11T01:44:57.108Z,6.58
2023-01-11T01:48:02.505Z,6.55
2023-01-11T01:51:09.493Z,6.54
2023-01-11T01:54:19.063Z,6.49
2023-01-11T01:57:27.307Z,6.53
2023-01-11T02:00:31.724Z,6.55
2023-01-11T02:03:35.786Z,6.58
2023-01-11T02:06:41.078Z,6.62
2023-01-11T02:09:52.274Z,6.63
2023-01-11T02:13:02.677Z,6.48
2023-01-11T02:16:09.735Z,6.44
2023-01-11T02:19:38.478Z,6.53
2023-01-11T02:23:10.483Z,6.51
2023-01-11T02:26:55.913Z,6.55
2023-01-11T02:30:29.682Z,6.42
2023-01-11T02:33:43.323Z,6.26
2023-01-11T02:36:56.778Z,6.20
2023-01-11T02:40:15.485Z,6.20
2023-01-11T02:43:46.165Z,6.18
2023-01-11T02:47:04.257Z,6.20
2023-01-11T02:50:21.172Z,6.30
2023-01-11T02:53:34.519Z,6.30
2023-01-11T02:56:44.763Z,6.26
2023-01-11T02:59:50.605Z,6.25
2023-01-11T03:03:19.108Z,6.30
2023-01-11T03:06:28.481Z,6.32
2023-01-11T03:10:01.730Z,6.45
2023-01-11T03:13:36.957Z,6.30
2023-01-11T03:16:55.461Z,6.17
2023-01-11T03:20:22.755Z,6.12
2023-01-11T03:23:26.777Z,6.15
2023-01-11T03:26:53.953Z,6.17
2023-01-11T03:30:16.577Z,6.26
2023-01-11T03:33:29.268Z,6.34
2023-01-11T03:36:46.420Z,6.23
2023-01-11T03:40:00.524Z,6.21
2023-01-11T03:43:13.365Z,6.22
2023-01-11T03:46:28.702Z,6.23
2023-01-11T03:49:47.630Z,6.26
2023-01-11T03:52:53.825Z,6.29
2023-01-11T03:56:00.149Z,6.25
2023-01-11T03:59:04.094Z,6.25
2023-01-11T04:02:19.816Z,6.36
2023-01-11T04:05:23.848Z,6.36
2023-01-11T04:08:28.711Z,6.37
2023-01-11T04:11:32.519Z,6.38
2023-01-11T04:14:36.772Z,6.34
2023-01-11T04:17:41.807Z,6.37
2023-01-11T04:20:46.288Z,6.35
2023-01-11T04:23:50.435Z,6.34
2023-01-11T04:26:54.515Z,6.28
2023-01-11T04:29:58.373Z,6.23
2023-01-11T04:33:02.922Z,6.25
2023-01-11T04:36:09.511Z,6.22
2023-01-11T04:39:13.451Z,6.21
2023-01-11T04:42:20.212Z,6.21
2023-01-11T04:45:24.132Z,6.18
2023-01-11T04:48:27.892Z,6.18
2023-01-11T04:51:32.170Z,6.24
2023-01-11T04:54:36.489Z,6.28
2023-01-11T04:57:40.776Z,6.21
2023-01-11T05:00:44.602Z,6.32
2023-01-11T05:03:48.491Z,6.24
2023-01-11T05:06:52.553Z,6.21
2023-01-11T05:09:56.627Z,6.24
2023-01-11T05:13:00.421Z,6.20
2023-01-11T05:16:04.539Z,6.30
2023-01-11T05:19:10.216Z,6.48
2023-01-11T05:22:14.303Z,6.52
2023-01-11T05:25:18.201Z,6.44
2023-01-11T05:28:22.157Z,6.56
2023-01-11T05:31:26.536Z,6.45
2023-01-11T05:34:30.924Z,6.36
2023-01-11T05:37:34.922Z,6.34
2023-01-11T05:40:38.910Z,6.38
2023-01-11T05:44:06.707Z,6.49
2023-01-11T05:47:10.986Z,6.43
2023-01-11T05:50:15.521Z,6.44
2023-01-11T05:53:20.001Z,6.46
2023-01-11T05:56:23.938Z,6.44
2023-01-11T05:59:29.838Z,6.41
2023-01-11T06:02:36.104Z,6.42
2023-01-11T06:05:40.227Z,6.40
2023-01-11T06:08:44.520Z,6.45
2023-01-11T06:11:50.460Z,6.53
2023-01-11T06:14:54.610Z,6.62
2023-01-11T06:17:58.948Z,6.59
2023-01-11T06:21:03.208Z,6.66
2023-01-11T06:24:07.448Z,6.57
2023-01-11T06:27:11.409Z,6.67
2023-01-11T06:30:15.370Z,6.66
2023-01-11T06:33:20.049Z,6.68
2023-01-11T06:36:24.246Z,6.69
2023-01-11T06:39:28.549Z,6.74
2023-01-11T06:42:32.204Z,6.80
2023-01-11T06:45:39.611Z,6.96
2023-01-11T06:48:44.534Z,6.98
2023-01-11T06:51:48.722Z,6.94
2023-01-11T06:54:52.673Z,6.92
2023-01-11T06:57:57.267Z,6.81
2023-01-11T07:01:01.400Z,6.81
2023-01-11T07:04:05.530Z,6.77
2023-01-11T07:07:09.636Z,6.80
2023-01-11T07:10:16.576Z,6.90
2023-01-11T07:13:21.005Z,6.99
2023-01-11T07:16:24.943Z,7.11
2023-01-11T07:19:29.232Z,7.11
2023-01-11T07:22:35.308Z,7.17
2023-01-11T07:25:39.321Z,7.09
2023-01-11T07:28:43.990Z,9.61
2023-01-11T07:31:48.328Z,9.74
2023-01-11T07:34:52.337Z,9.28
2023-01-11T07:37:56.450Z,8.66
2023-01-11T07:41:00.808Z,8.39
2023-01-11T07:44:04.918Z,8.24
2023-01-11T07:47:08.895Z,8.11
2023-01-11T07:50:13.002Z,8.03
2023-01-11T07:53:18.829Z,8.41
2023-01-11T07:56:23.697Z,8.16
2023-01-11T07:59:27.767Z,8.05
2023-01-11T08:02:32.005Z,7.93
2023-01-11T08:05:36.357Z,7.86
2023-01-11T08:08:41.463Z,7.87
2023-01-11T08:12:04.559Z,7.86
2023-01-11T08:15:14.075Z,7.93
2023-01-11T08:18:19.522Z,7.91
2023-01-11T08:21:23.549Z,8.03
2023-01-11T08:24:27.848Z,8.04
2023-01-11T08:27:31.979Z,8.03
2023-01-11T08:30:37.019Z,8.05
2023-01-11T08:33:41.120Z,8.04
2023-01-11T08:36:45.502Z,8.20
2023-01-11T08:39:50.588Z,8.19
2023-01-11T08:42:56.699Z,8.26
2023-01-11T08:46:00.860Z,8.34
2023-01-11T08:49:11.167Z,8.40
2023-01-11T08:52:14.947Z,8.48
2023-01-11T08:55:19.848Z,8.55
2023-01-11T08:58:25.370Z,8.55
2023-01-11T09:01:29.850Z,8.61
2023-01-11T09:04:34.043Z,8.66
2023-01-11T09:07:38.241Z,8.74
2023-01-11T09:10:42.190Z,8.83
2023-01-11T09:13:45.934Z,8.82
2023-01-11T09:16:50.855Z,8.87
2023-01-11T09:19:54.934Z,8.88
2023-01-11T09:22:59.196Z,8.91
2023-01-11T09:26:03.386Z,8.95
2023-01-11T09:29:07.956Z,8.91
2023-01-11T09:32:12.023Z,8.99
2023-01-11T09:35:17.848Z,9.01
2023-01-11T09:38:22.075Z,9.01
2023-01-11T09:41:41.666Z,9.02
2023-01-11T09:44:51.807Z,9.02
2023-01-11T09:48:11.601Z,9.01
2023-01-11T09:51:16.563Z,9.10
2023-01-11T09:54:25.846Z,9.14
2023-01-11T09:58:05.236Z,9.23
2023-01-11T10:01:20.485Z,9.30
2023-01-11T10:04:36.141Z,9.36
2023-01-11T10:18:23.801Z,9.51
2023-01-11T10:19:31.496Z,9.56
2023-01-11T10:22:35.074Z,9.62
2023-01-11T10:25:48.279Z,9.64
2023-01-11T10:29:14.587Z,9.57
2023-01-11T10:33:01.894Z,9.64
2023-01-11T10:36:55.431Z,9.68
2023-01-11T10:40:40.517Z,9.69
2023-01-11T10:43:49.392Z,9.68
2023-01-11T10:46:54.023Z,9.71
2023-01-11T10:50:06.323Z,9.67
2023-01-11T10:53:30.013Z,9.67
2023-01-11T10:57:02.321Z,9.66
2023-01-11T11:00:19.736Z,9.71
2023-01-11T11:03:33.261Z,9.70
2023-01-11T11:06:46.927Z,9.76
2023-01-11T11:09:51.155Z,9.74
2023-01-11T11:13:20.262Z,9.74
2023-01-11T11:16:24.367Z,9.68
2023-01-11T11:19:32.702Z,9.61
2023-01-11T11:22:37.043Z,9.54
2023-01-11T11:25:48.142Z,9.59
2023-01-11T11:29:08.214Z,9.50
2023-01-11T11:32:39.918Z,9.43
2023-01-11T11:35:46.301Z,9.42
2023-01-11T11:39:11.824Z,9.33
2023-01-11T11:42:17.561Z,9.32
2023-01-11T11:45:21.354Z,9.30
2023-01-11T11:48:27.742Z,9.30
2023-01-11T11:51:32.698Z,9.32
2023-01-11T11:54:43.201Z,9.35
2023-01-11T11:57:47.612Z,9.38
2023-01-11T12:00:53.167Z,9.48
2023-01-11T12:04:01.559Z,9.47
2023-01-11T12:07:09.055Z,9.46
2023-01-11T12:10:16.442Z,9.43
2023-01-11T12:13:42.448Z,9.41
2023-01-11T12:16:47.114Z,9.50
2023-01-11T12:19:51.482Z,9.46
2023-01-11T12:23:15.414Z,9.52
2023-01-11T12:26:37.825Z,9.48
2023-01-11T12:30:08.402Z,9.47
2023-01-11T12:33:18.408Z,9.47
2023-01-11T12:36:27.518Z,9.42
2023-01-11T12:39:43.164Z,9.45
2023-01-11T12:43:08.259Z,9.38
2023-01-11T12:46:41.026Z,9.36
2023-01-11T12:50:13.461Z,9.38
2023-01-11T12:53:37.750Z,9.38
2023-01-11T12:56:56.865Z,9.44
2023-01-11T13:00:10.176Z,9.38
2023-01-11T13:03:16.952Z,9.43
2023-01-11T13:06:25.381Z,9.46
2023-01-11T13:09:38.644Z,9.49
2023-01-11T13:13:09.375Z,9.63
2023-01-11T13:16:43.351Z,9.57
2023-01-11T13:20:02.600Z,9.61
2023-01-11T13:23:41.899Z,9.58
2023-01-11T13:26:49.786Z,9.61
2023-01-11T13:29:56.639Z,9.60
2023-01-11T13:33:17.120Z,9.64
2023-01-11T13:36:30.003Z,9.55
2023-01-11T13:39:48.469Z,9.53
2023-01-11T13:43:40.471Z,9.56
2023-01-11T13:46:47.276Z,9.47
2023-01-11T13:50:00.501Z,9.45
2023-01-11T13:53:27.591Z,9.43
2023-01-11T13:56:41.360Z,9.45
2023-01-11T13:59:49.962Z,9.44
2023-01-11T14:03:12.759Z,9.44
2023-01-11T14:06:25.633Z,9.40
2023-01-11T14:10:03.800Z,9.34
2023-01-11T14:13:42.953Z,9.40
2023-01-11T14:17:16.833Z,9.38
2023-01-11T14:20:38.093Z,9.37
2023-01-11T14:23:50.764Z,9.38
2023-01-11T14:27:16.273Z,9.37
2023-01-11T14:30:37.908Z,9.36
2023-01-11T14:34:09.073Z,9.37
2023-01-11T14:37:43.372Z,9.30
2023-01-11T14:41:08.771Z,9.31
2023-01-11T14:44:28.044Z,9.33
2023-01-11T14:48:04.872Z,9.29
2023-01-11T14:51:38.026Z,9.29
2023-01-11T14:54:45.394Z,9.27
2023-01-11T14:57:55.682Z,9.27
2023-01-11T15:00:59.890Z,9.24
2023-01-11T15:04:04.481Z,9.33
2023-01-11T15:07:25.057Z,9.28
2023-01-11T15:10:29.088Z,9.23
2023-01-11T15:13:46.713Z,9.19
2023-01-11T15:17:15.540Z,9.12
2023-01-11T15:20:21.760Z,9.14
2023-01-11T15:23:26.130Z,9.23
2023-01-11T15:26:29.961Z,9.20
2023-01-11T15:29:46.323Z,9.21
2023-01-11T15:32:50.693Z,9.18
2023-01-11T15:35:57.520Z,9.17
2023-01-11T15:39:05.668Z,9.22
2023-01-11T15:42:22.629Z,9.20
2023-01-11T15:46:28.629Z,9.24
2023-01-11T15:49:37.900Z,9.19
2023-01-11T15:53:19.419Z,9.27
2023-01-11T15:56:46.632Z,9.28
2023-01-11T16:00:20.324Z,9.30
2023-01-11T16:04:00.790Z,9.32
2023-01-11T16:07:18.041Z,9.31
2023-01-11T16:10:59.586Z,9.27
2023-01-11T16:14:39.954Z,9.28
2023-01-11T16:17:46.102Z,9.27
2023-01-11T16:21:07.396Z,9.25
2023-01-11T16:24:20.594Z,9.30
2023-01-11T16:27:27.434Z,9.30
2023-01-11T16:30:31.599Z,9.22
2023-01-11T16:33:35.872Z,9.23
2023-01-11T16:36:41.581Z,9.24
2023-01-11T16:39:47.472Z,9.28
2023-01-11T16:42:55.947Z,9.23
2023-01-11T16:46:00.274Z,9.22
2023-01-11T16:49:10.110Z,9.22
2023-01-11T16:52:37.677Z,9.23
2023-01-11T16:55:51.976Z,9.24
2023-01-11T16:59:13.988Z,9.18
2023-01-11T17:02:31.744Z,9.15
2023-01-11T17:05:36.203Z,9.11
2023-01-11T17:08:45.801Z,9.16
2023-01-11T17:11:52.402Z,9.16
2023-01-11T17:15:23.543Z,9.11
2023-01-11T17:18:27.364Z,9.02
2023-01-11T17:21:31.259Z,8.99
2023-01-11T17:24:41.443Z,8.99
2023-01-11T17:27:50.848Z,9.09
2023-01-11T17:30:54.771Z,9.09
2023-01-11T17:34:20.726Z,9.21
2023-01-11T17:37:24.827Z,9.14
2023-01-11T17:40:35.795Z,9.09
2023-01-11T17:43:58.515Z,9.07
2023-01-11T17:47:06.280Z,9.07
2023-01-11T17:50:37.935Z,9.00
2023-01-11T17:53:49.168Z,9.02
2023-01-11T17:56:59.919Z,9.00
2023-01-11T18:00:27.457Z,8.91
2023-01-11T18:03:40.935Z,8.84
2023-01-11T18:06:48.147Z,8.82
2023-01-11T18:10:01.022Z,8.80
2023-01-11T18:13:24.869Z,8.75
2023-01-11T18:16:29.483Z,8.74
2023-01-11T18:19:42.001Z,8.73
2023-01-11T18:22:58.863Z,8.67
2023-01-11T18:26:26.955Z,8.67
2023-01-11T18:29:37.089Z,8.55
2023-01-11T18:32:42.671Z,8.53
2023-01-11T18:35:49.579Z,8.49
2023-01-11T18:38:53.660Z,8.43
2023-01-11T18:42:09.916Z,8.50
2023-01-11T18:45:14.310Z,8.45
2023-01-11T18:48:18.340Z,8.37
2023-01-11T18:51:35.637Z,8.35
2023-01-11T18:54:40.908Z,8.34
2023-01-11T18:57:45.054Z,8.39
2023-01-11T19:00:49.085Z,8.42
2023-01-11T19:03:53.338Z,8.45
2023-01-11T19:06:57.642Z,8.39
2023-01-11T19:10:02.019Z,8.48
2023-01-11T19:13:06.156Z,8.38
2023-01-11T19:16:10.648Z,8.32
2023-01-11T19:19:15.088Z,8.29
2023-01-11T19:22:21.129Z,8.28
2023-01-11T19:25:27.238Z,8.28
2023-01-11T19:28:31.159Z,8.30
2023-01-11T19:31:35.316Z,8.29
2023-01-11T19:34:39.881Z,8.32
2023-01-11T19:37:43.672Z,8.35
2023-01-11T19:40:50.341Z,8.40
2023-01-11T19:43:54.761Z,8.43
2023-01-11T19:47:10.906Z,8.60
2023-01-11T19:50:17.585Z,8.53
2023-01-11T19:53:21.771Z,8.49
2023-01-11T19:56:25.825Z,8.55
2023-01-11T19:59:29.897Z,8.55
2023-01-11T20:02:33.841Z,8.47
2023-01-11T20:05:37.900Z,8.41
2023-01-11T20:08:42.028Z,8.35
2023-01-11T20:11:48.898Z,8.35
2023-01-11T20:14:56.933Z,8.27
2023-01-11T20:18:04.620Z,8.24
2023-01-11T20:21:10.373Z,8.19
2023-01-11T20:24:15.286Z,8.15
2023-01-11T20:27:19.032Z,8.18
2023-01-11T20:30:23.288Z,8.12
2023-01-11T20:33:27.302Z,8.02
2023-01-11T20:36:31.898Z,7.94
2023-01-11T20:39:35.795Z,7.93
2023-01-11T20:42:39.725Z,7.89
2023-01-11T20:45:43.922Z,7.93
2023-01-11T20:48:48.190Z,7.95
2023-01-11T20:51:52.573Z,7.89
2023-01-11T20:54:56.807Z,7.88
2023-01-11T20:58:01.567Z,7.91
2023-01-11T21:01:07.324Z,7.95
2023-01-11T21:04:12.932Z,7.99
2023-01-11T21:07:17.291Z,7.87
2023-01-11T21:10:21.398Z,7.89
2023-01-11T21:13:25.539Z,7.90
2023-01-11T21:16:30.656Z,7.96
2023-01-11T21:19:34.437Z,7.93
2023-01-11T21:22:38.545Z,7.94
2023-01-11T21:25:42.937Z,7.90
2023-01-11T21:28:55.654Z,7.86
2023-01-11T21:32:00.444Z,7.92
2023-01-11T21:35:05.228Z,7.79
2023-01-11T21:38:09.183Z,7.74
2023-01-11T21:41:18.531Z,7.73
2023-01-11T21:44:27.190Z,7.68
2023-01-11T21:47:31.308Z,7.58
2023-01-11T21:50:35.300Z,7.52
2023-01-11T21:53:39.453Z,7.54
2023-01-11T21:56:43.527Z,7.63
2023-01-11T21:59:47.494Z,7.63
2023-01-11T22:02:51.580Z,7.71
2023-01-11T22:06:02.412Z,7.56
2023-01-11T22:09:09.242Z,7.44
2023-01-11T22:12:13.175Z,7.51
2023-01-11T22:15:16.999Z,7.54
2023-01-11T22:18:22.213Z,7.41
2023-01-11T22:21:26.816Z,7.37
2023-01-11T22:24:31.077Z,7.40
2023-01-11T22:27:35.169Z,7.33
2023-01-11T22:30:39.377Z,7.15
2023-01-11T22:33:43.449Z,7.12
2023-01-11T22:36:48.364Z,7.03
2023-01-11T22:39:52.225Z,6.94
2023-01-11T22:42:56.089Z,6.89
2023-01-11T22:46:01.175Z,6.85
2023-01-11T22:49:06.289Z,6.80
2023-01-11T22:52:10.451Z,6.82
2023-01-11T22:55:14.398Z,6.87
2023-01-11T22:58:18.615Z,6.82
2023-01-11T23:01:34.147Z,6.83
2023-01-11T23:04:38.280Z,6.78
2023-01-11T23:07:43.531Z,6.80
2023-01-11T23:10:47.616Z,6.84
2023-01-11T23:13:54.993Z,6.79
2023-01-11T23:17:05.703Z,6.75
2023-01-11T23:20:10.449Z,6.67
2023-01-11T23:23:14.413Z,6.76
2023-01-11T23:26:18.603Z,6.81
2023-01-11T23:29:22.518Z,6.84
2023-01-11T23:32:27.512Z,6.83
2023-01-11T23:35:31.315Z,6.83
2023-01-11T23:38:35.455Z,6.88
2023-01-11T23:41:58.108Z,6.88
2023-01-11T23:45:02.457Z,6.93
2023-01-11T23:48:06.788Z,6.90
2023-01-11T23:51:10.773Z,6.83
2023-01-11T23:54:14.717Z,6.79
2023-01-11T23:57:20.170Z,6.70
